createdAt,value
2023-05-11T00:02:18.114Z,9.76
2023-05-11T00:04:46.540Z,9.71
2023-05-11T00:07:14.802Z,9.67
2023-05-11T00:09:43.015Z,9.63
2023-05-11T00:12:11.517Z,9.62
2023-05-11T00:14:41.692Z,9.58
2023-05-11T00:17:10.926Z,9.57
2023-05-11T00:19:39.279Z,9.53
2023-05-11T00:22:07.510Z,9.46
2023-05-11T00:24:35.763Z,9.50
2023-05-11T00:27:04.247Z,9.49
2023-05-11T00:29:32.578Z,9.44
2023-05-11T00:32:03.464Z,9.45
2023-05-11T00:34:32.244Z,9.43
2023-05-11T00:37:00.862Z,9.39
2023-05-11T00:39:29.071Z,9.36
2023-05-11T00:41:58.008Z,9.30
2023-05-11T00:44:27.521Z,9.27
2023-05-11T00:46:56.239Z,9.21
2023-05-11T00:49:26.005Z,9.20
2023-05-11T00:51:54.307Z,9.16
2023-05-11T00:54:22.969Z,9.11
2023-05-11T00:56:51.111Z,9.06
2023-05-11T00:59:19.502Z,9.02
2023-05-11T01:01:47.822Z,8.97
2023-05-11T01:04:16.190Z,8.91
2023-05-11T01:06:52.971Z,8.85
2023-05-11T01:09:30.887Z,8.82
2023-05-11T01:12:09.879Z,8.78
2023-05-11T01:14:46.259Z,8.73
2023-05-11T01:17:25.416Z,8.70
2023-05-11T01:19:59.168Z,8.66
2023-05-11T01:22:44.613Z,8.62
2023-05-11T01:25:23.884Z,8.57
2023-05-11T01:28:21.805Z,8.53
2023-05-11T01:30:53.377Z,8.49
2023-05-11T01:33:27.357Z,8.46
2023-05-11T01:36:01.992Z,8.39
2023-05-11T01:38:34.941Z,8.34
2023-05-11T01:41:10.368Z,8.29
2023-05-11T01:43:42.736Z,8.25
2023-05-11T01:46:14.039Z,8.21
2023-05-11T01:48:48.316Z,8.15
2023-05-11T01:51:19.840Z,8.12
2023-05-11T01:53:49.400Z,8.10
2023-05-11T01:56:19.649Z,8.04
2023-05-11T01:58:52.898Z,8.01
2023-05-11T02:01:23.547Z,8.00
2023-05-11T02:03:54.915Z,7.94
2023-05-11T02:06:25.658Z,7.93
2023-05-11T02:08:54.870Z,7.85
2023-05-11T02:11:26.032Z,7.82
2023-05-11T02:13:57.083Z,7.80
2023-05-11T02:16:29.595Z,7.75
2023-05-11T02:19:00.224Z,7.70
2023-05-11T02:21:29.085Z,7.67
2023-05-11T02:23:58.812Z,7.63
2023-05-11T02:26:27.168Z,7.60
2023-05-11T02:28:55.595Z,7.56
2023-05-11T02:31:29.835Z,7.53
2023-05-11T02:34:01.639Z,7.55
2023-05-11T02:36:31.412Z,7.54
2023-05-11T02:39:08.979Z,7.51
2023-05-11T02:41:44.114Z,7.51
2023-05-11T02:44:17.335Z,7.49
2023-05-11T02:46:51.429Z,7.50
2023-05-11T02:49:22.345Z,7.52
2023-05-11T02:51:51.848Z,7.58
2023-05-11T02:54:23.368Z,7.59
2023-05-11T02:56:52.609Z,7.64
2023-05-11T02:59:22.782Z,7.67
2023-05-11T03:01:53.344Z,7.73
2023-05-11T03:04:28.978Z,7.80
2023-05-11T03:06:57.916Z,7.87
2023-05-11T03:09:26.957Z,7.99
2023-05-11T03:11:56.059Z,8.09
2023-05-11T03:14:24.818Z,8.15
2023-05-11T03:16:56.570Z,8.28
2023-05-11T03:19:25.471Z,8.39
2023-05-11T03:21:55.121Z,8.52
2023-05-11T03:24:24.644Z,8.65
2023-05-11T03:26:53.812Z,8.78
2023-05-11T03:29:24.005Z,8.89
2023-05-11T03:31:56.223Z,9.02
2023-05-11T03:34:25.017Z,9.10
2023-05-11T03:36:54.243Z,9.16
2023-05-11T03:39:23.979Z,9.22
2023-05-11T03:41:54.935Z,9.30
2023-05-11T03:44:26.239Z,9.37
2023-05-11T03:46:56.902Z,9.43
2023-05-11T03:49:26.355Z,9.49
2023-05-11T03:52:06.020Z,9.58
2023-05-11T03:54:34.409Z,9.68
2023-05-11T03:57:03.380Z,9.76
2023-05-11T03:59:31.651Z,9.79
2023-05-11T04:02:01.862Z,9.83
2023-05-11T04:04:31.180Z,9.87
2023-05-11T04:07:07.304Z,9.91
2023-05-11T04:09:35.531Z,9.95
2023-05-11T04:12:03.805Z,9.99
2023-05-11T04:14:32.125Z,10.02
2023-05-11T04:17:03.563Z,10.06
2023-05-11T04:19:33.841Z,10.12
2023-05-11T04:22:05.063Z,10.17
2023-05-11T04:24:33.236Z,10.26
2023-05-11T04:27:04.457Z,10.37
2023-05-11T04:29:32.785Z,10.44
2023-05-11T04:32:03.114Z,10.50
2023-05-11T04:34:31.892Z,10.58
2023-05-11T04:37:00.330Z,10.65
2023-05-11T04:39:28.621Z,10.75
2023-05-11T04:41:56.892Z,10.82
2023-05-11T04:44:25.714Z,10.90
2023-05-11T04:46:55.771Z,10.99
2023-05-11T04:49:25.480Z,11.07
2023-05-11T04:51:53.740Z,11.14
2023-05-11T04:54:21.884Z,11.27
2023-05-11T04:56:50.107Z,11.33
2023-05-11T04:59:18.370Z,11.41
2023-05-11T05:01:46.652Z,11.50
2023-05-11T05:04:14.947Z,11.58
2023-05-11T05:06:45.143Z,11.64
2023-05-11T05:09:13.737Z,11.74
2023-05-11T05:11:42.426Z,11.82
2023-05-11T05:14:10.850Z,11.93
2023-05-11T05:16:42.349Z,12.05
2023-05-11T05:19:12.901Z,12.16
2023-05-11T05:21:41.820Z,12.29
2023-05-11T05:24:12.349Z,12.41
2023-05-11T05:26:40.579Z,12.53
2023-05-11T05:29:09.262Z,12.62
2023-05-11T05:31:37.497Z,12.72
2023-05-11T05:34:06.596Z,12.80
2023-05-11T05:36:35.508Z,12.93
2023-05-11T05:39:08.895Z,13.02
2023-05-11T05:41:42.996Z,13.19
2023-05-11T05:44:11.156Z,13.32
2023-05-11T05:46:39.553Z,13.42
2023-05-11T05:49:08.264Z,13.57
2023-05-11T05:51:37.154Z,13.67
2023-05-11T05:54:05.874Z,13.72
2023-05-11T05:56:49.363Z,13.79
2023-05-11T05:59:19.526Z,13.93
2023-05-11T06:01:49.201Z,14.06
2023-05-11T06:04:17.701Z,14.20
2023-05-11T06:06:46.215Z,14.32
2023-05-11T06:09:14.551Z,14.41
2023-05-11T06:11:45.541Z,14.46
2023-05-11T06:14:15.659Z,14.55
2023-05-11T06:16:44.004Z,14.67
2023-05-11T06:19:13.537Z,14.79
2023-05-11T06:21:45.280Z,14.94
2023-05-11T06:24:13.571Z,15.08
2023-05-11T06:26:42.293Z,15.23
2023-05-11T06:29:10.942Z,15.34
2023-05-11T06:31:41.953Z,15.52
2023-05-11T06:34:10.722Z,15.61
2023-05-11T06:36:39.354Z,15.73
2023-05-11T06:39:07.894Z,15.85
2023-05-11T06:41:36.173Z,15.94
2023-05-11T06:44:06.662Z,16.07
2023-05-11T06:46:35.481Z,16.26
2023-05-11T06:49:05.204Z,16.42
2023-05-11T06:51:34.634Z,16.54
2023-05-11T06:54:03.136Z,16.67
2023-05-11T06:56:32.088Z,16.83
2023-05-11T06:59:00.569Z,16.97
2023-05-11T07:01:29.003Z,17.09
2023-05-11T07:03:57.187Z,17.22
2023-05-11T07:06:27.298Z,17.30
2023-05-11T07:08:55.717Z,17.40
2023-05-11T07:11:25.607Z,17.50
2023-05-11T07:13:56.116Z,17.60
2023-05-11T07:16:24.892Z,17.70
2023-05-11T07:18:53.677Z,17.74
2023-05-11T07:21:23.476Z,17.91
2023-05-11T07:23:53.431Z,18.05
2023-05-11T07:26:22.169Z,18.20
2023-05-11T07:28:51.010Z,18.30
2023-05-11T07:31:19.245Z,18.47
2023-05-11T07:33:47.905Z,18.57
2023-05-11T07:36:16.197Z,18.65
2023-05-11T07:38:44.369Z,18.71
2023-05-11T07:41:14.311Z,18.78
2023-05-11T07:43:42.888Z,18.87
2023-05-11T07:46:11.136Z,18.95
2023-05-11T07:48:39.377Z,19.05
2023-05-11T07:51:08.488Z,19.08
2023-05-11T07:53:42.186Z,19.16
2023-05-11T07:56:10.728Z,19.20
2023-05-11T07:58:40.421Z,19.31
2023-05-11T08:01:08.855Z,19.37
2023-05-11T08:03:45.325Z,19.45
2023-05-11T08:06:13.796Z,19.55
2023-05-11T08:08:43.880Z,19.63
2023-05-11T08:11:12.203Z,19.71
2023-05-11T08:13:42.329Z,19.82
2023-05-11T08:16:10.934Z,19.92
2023-05-11T08:18:39.282Z,19.99
2023-05-11T08:21:08.234Z,20.06
2023-05-11T08:23:45.221Z,20.20
2023-05-11T08:26:13.552Z,20.31
2023-05-11T08:28:44.203Z,20.42
2023-05-11T08:31:14.441Z,20.52
2023-05-11T08:33:42.772Z,20.56
2023-05-11T08:36:13.286Z,20.58
2023-05-11T08:38:41.780Z,20.66
2023-05-11T08:41:13.710Z,20.69
2023-05-11T08:43:47.077Z,20.70
2023-05-11T08:46:22.322Z,20.76
2023-05-11T08:48:51.382Z,20.83
2023-05-11T08:51:19.941Z,20.87
2023-05-11T08:53:48.363Z,20.88
2023-05-11T08:56:17.425Z,20.89
2023-05-11T08:58:48.926Z,20.97
2023-05-11T09:01:23.539Z,20.97
2023-05-11T09:03:52.901Z,21.04
2023-05-11T09:06:22.588Z,21.10
2023-05-11T09:08:51.082Z,21.16
2023-05-11T09:11:19.801Z,21.21
2023-05-11T09:13:49.693Z,21.26
2023-05-11T09:16:35.507Z,21.33
2023-05-11T09:19:05.606Z,21.40
2023-05-11T09:21:35.102Z,21.46
2023-05-11T09:24:04.704Z,21.54
2023-05-11T09:26:39.700Z,21.57
2023-05-11T09:29:09.510Z,21.59
2023-05-11T09:31:41.700Z,21.62
2023-05-11T09:34:12.977Z,21.64
2023-05-11T09:36:41.779Z,21.75
2023-05-11T09:39:15.545Z,21.82
2023-05-11T09:41:47.279Z,21.92
2023-05-11T09:44:17.356Z,21.95
2023-05-11T09:46:47.705Z,22.04
2023-05-11T09:49:16.035Z,22.09
2023-05-11T09:51:44.282Z,22.14
2023-05-11T09:54:19.818Z,22.12
2023-05-11T09:56:50.403Z,22.09
2023-05-11T09:59:38.946Z,22.13
2023-05-11T10:02:21.630Z,22.21
2023-05-11T10:04:50.735Z,22.25
2023-05-11T10:07:27.054Z,22.34
2023-05-11T10:09:56.490Z,22.42
2023-05-11T10:12:27.479Z,22.47
2023-05-11T10:15:03.894Z,22.52
2023-05-11T10:17:32.445Z,22.51
2023-05-11T10:20:01.868Z,22.57
2023-05-11T10:22:31.010Z,22.56
2023-05-11T10:25:00.410Z,22.57
2023-05-11T10:27:29.069Z,22.60
2023-05-11T10:30:00.887Z,22.63
2023-05-11T10:32:29.707Z,22.63
2023-05-11T10:34:58.046Z,22.68
2023-05-11T10:37:27.131Z,22.72
2023-05-11T10:39:55.337Z,22.69
2023-05-11T10:42:38.264Z,22.69
2023-05-11T10:45:27.749Z,22.68
2023-05-11T10:48:28.095Z,22.69
2023-05-11T10:51:09.256Z,22.66
2023-05-11T10:53:59.474Z,22.65
2023-05-11T10:56:41.172Z,22.61
2023-05-11T10:59:30.866Z,22.61
2023-05-11T11:02:01.861Z,22.69
2023-05-11T11:04:44.104Z,22.77
2023-05-11T11:07:17.203Z,22.82
2023-05-11T11:09:53.611Z,22.86
2023-05-11T11:12:23.485Z,22.87
2023-05-11T11:14:56.403Z,22.90
2023-05-11T11:17:29.159Z,22.94
2023-05-11T11:19:58.012Z,23.02
2023-05-11T11:22:47.427Z,23.09
2023-05-11T11:25:17.552Z,23.11
2023-05-11T11:28:00.234Z,23.18
2023-05-11T11:30:30.787Z,23.24
2023-05-11T11:33:34.806Z,23.32
2023-05-11T11:36:03.613Z,23.25
2023-05-11T11:38:33.288Z,23.29
2023-05-11T11:41:03.779Z,23.42
2023-05-11T11:43:47.326Z,23.47
2023-05-11T11:46:28.998Z,23.49
2023-05-11T11:49:13.433Z,23.50
2023-05-11T11:51:41.860Z,23.49
2023-05-11T11:54:10.389Z,23.54
2023-05-11T11:56:45.808Z,23.56
2023-05-11T11:59:16.147Z,23.53
2023-05-11T12:01:46.036Z,23.46
2023-05-11T12:04:51.088Z,23.53
2023-05-11T12:07:23.010Z,23.58
2023-05-11T12:09:52.961Z,23.67
2023-05-11T12:12:22.149Z,23.73
2023-05-11T12:14:50.906Z,23.74
2023-05-11T12:17:28.286Z,23.79
2023-05-11T12:19:57.891Z,23.78
2023-05-11T12:22:28.171Z,23.88
2023-05-11T12:25:00.514Z,23.92
2023-05-11T12:27:29.032Z,23.98
2023-05-11T12:29:58.658Z,23.99
2023-05-11T12:32:29.993Z,24.04
2023-05-11T12:35:02.468Z,24.10
2023-05-11T12:37:33.090Z,24.14
2023-05-11T12:40:01.602Z,24.05
2023-05-11T12:42:29.753Z,24.11
2023-05-11T12:44:58.501Z,24.11
2023-05-11T12:47:29.605Z,24.12
2023-05-11T12:49:58.010Z,24.17
2023-05-11T12:52:26.729Z,24.21
2023-05-11T12:55:00.190Z,24.18
2023-05-11T12:57:30.124Z,24.22
2023-05-11T13:00:13.341Z,24.27
2023-05-11T13:02:52.114Z,24.27
2023-05-11T13:05:25.416Z,24.33
2023-05-11T13:07:59.760Z,24.31
2023-05-11T13:10:29.695Z,24.26
2023-05-11T13:12:59.239Z,24.14
2023-05-11T13:15:28.660Z,24.19
2023-05-11T13:17:58.912Z,24.25
2023-05-11T13:20:29.661Z,24.24
2023-05-11T13:23:06.882Z,24.21
2023-05-11T13:25:54.587Z,24.03
2023-05-11T13:28:25.515Z,23.95
2023-05-11T13:31:11.712Z,24.04
2023-05-11T13:33:40.006Z,24.03
2023-05-11T13:36:08.690Z,24.13
2023-05-11T13:38:37.234Z,24.19
2023-05-11T13:41:08.675Z,24.33
2023-05-11T13:43:37.028Z,24.41
2023-05-11T13:46:05.340Z,24.48
2023-05-11T13:48:51.980Z,24.41
2023-05-11T13:51:20.228Z,24.40
2023-05-11T13:53:48.821Z,24.41
2023-05-11T13:56:19.768Z,24.45
2023-05-11T13:58:47.979Z,24.54
2023-05-11T14:01:16.527Z,24.54
2023-05-11T14:03:44.909Z,24.51
2023-05-11T14:06:13.170Z,24.52
2023-05-11T14:08:41.426Z,24.50
2023-05-11T14:11:09.636Z,24.46
2023-05-11T14:13:40.989Z,24.39
2023-05-11T14:16:10.241Z,24.33
2023-05-11T14:18:54.981Z,24.34
2023-05-11T14:21:23.468Z,24.24
2023-05-11T14:24:10.039Z,24.23
2023-05-11T14:26:40.049Z,24.28
2023-05-11T14:29:09.982Z,24.34
2023-05-11T14:31:38.775Z,24.34
2023-05-11T14:34:07.782Z,24.33
2023-05-11T14:36:37.611Z,24.38
2023-05-11T14:39:05.813Z,24.45
2023-05-11T14:41:34.069Z,24.54
2023-05-11T14:44:02.921Z,24.58
2023-05-11T14:46:32.789Z,24.62
2023-05-11T14:49:01.472Z,24.57
2023-05-11T14:51:29.889Z,24.56
2023-05-11T14:53:59.613Z,24.55
2023-05-11T14:56:27.823Z,24.50
2023-05-11T14:58:57.328Z,24.52
2023-05-11T15:01:25.533Z,24.48
2023-05-11T15:03:55.963Z,24.44
2023-05-11T15:06:24.888Z,24.41
2023-05-11T15:08:54.809Z,24.38
2023-05-11T15:11:25.984Z,24.44
2023-05-11T15:13:54.234Z,24.47
2023-05-11T15:16:22.419Z,24.42
2023-05-11T15:18:50.931Z,24.41
2023-05-11T15:21:20.556Z,24.41
2023-05-11T15:23:55.465Z,24.60
2023-05-11T15:26:23.811Z,25.00
2023-05-11T15:28:52.593Z,25.57
2023-05-11T15:31:20.780Z,26.85
2023-05-11T15:33:49.049Z,28.06
2023-05-11T15:36:17.453Z,29.18
2023-05-11T15:38:48.170Z,30.05
2023-05-11T15:41:16.597Z,30.69
2023-05-11T15:43:46.066Z,31.18
2023-05-11T15:46:14.301Z,31.69
2023-05-11T15:48:42.711Z,31.89
2023-05-11T15:51:11.061Z,31.92
2023-05-11T15:53:39.571Z,31.80
2023-05-11T15:56:10.273Z,31.85
2023-05-11T15:58:38.997Z,31.82
2023-05-11T16:01:07.307Z,31.78
2023-05-11T16:03:36.205Z,31.69
2023-05-11T16:06:04.974Z,31.58
2023-05-11T16:08:33.652Z,31.30
2023-05-11T16:11:02.274Z,31.25
2023-05-11T16:13:31.883Z,31.12
2023-05-11T16:16:01.269Z,31.23
2023-05-11T16:18:29.447Z,31.41
2023-05-11T16:20:58.886Z,31.41
2023-05-11T16:23:28.011Z,31.48
2023-05-11T16:25:56.821Z,31.53
2023-05-11T16:28:25.193Z,31.51
2023-05-11T16:30:57.888Z,31.19
2023-05-11T16:33:28.296Z,30.68
2023-05-11T16:35:57.134Z,30.23
2023-05-11T16:38:25.338Z,29.84
2023-05-11T16:40:53.688Z,29.44
2023-05-11T16:43:22.306Z,29.19
2023-05-11T16:45:51.857Z,29.03
2023-05-11T16:48:21.646Z,29.21
2023-05-11T16:50:50.358Z,29.28
2023-05-11T16:53:22.269Z,29.32
2023-05-11T16:55:52.097Z,29.27
2023-05-11T16:58:20.255Z,29.48
2023-05-11T17:00:56.131Z,29.59
2023-05-11T17:03:26.157Z,29.82
2023-05-11T17:05:55.937Z,29.73
2023-05-11T17:08:24.329Z,29.67
2023-05-11T17:10:55.782Z,29.65
2023-05-11T17:13:23.946Z,29.64
2023-05-11T17:15:56.309Z,29.28
2023-05-11T17:18:26.412Z,29.15
2023-05-11T17:20:55.238Z,29.28
2023-05-11T17:23:23.631Z,29.28
2023-05-11T17:25:57.922Z,29.19
2023-05-11T17:28:26.784Z,28.76
2023-05-11T17:30:55.051Z,28.15
2023-05-11T17:33:23.679Z,27.48
2023-05-11T17:35:54.516Z,26.75
2023-05-11T17:38:22.801Z,26.32
2023-05-11T17:40:51.071Z,25.85
2023-05-11T17:43:19.786Z,25.39
2023-05-11T17:45:48.296Z,24.88
2023-05-11T17:48:17.211Z,24.39
2023-05-11T17:50:48.256Z,24.06
2023-05-11T17:53:18.130Z,23.69
2023-05-11T17:55:46.397Z,23.52
2023-05-11T17:58:15.087Z,23.34
2023-05-11T18:00:49.078Z,23.24
2023-05-11T18:03:17.947Z,23.29
2023-05-11T18:05:49.044Z,23.63
2023-05-11T18:08:19.078Z,23.87
2023-05-11T18:10:48.245Z,24.06
2023-05-11T18:13:17.646Z,24.15
2023-05-11T18:15:46.123Z,24.23
2023-05-11T18:18:14.532Z,24.18
2023-05-11T18:20:45.563Z,23.90
2023-05-11T18:23:14.239Z,23.58
2023-05-11T18:25:44.526Z,23.18
2023-05-11T18:28:12.723Z,22.72
2023-05-11T18:30:41.135Z,22.20
2023-05-11T18:33:09.405Z,21.88
2023-05-11T18:35:39.343Z,21.58
2023-05-11T18:38:07.808Z,21.49
2023-05-11T18:40:36.279Z,21.38
2023-05-11T18:43:05.920Z,21.07
2023-05-11T18:45:35.127Z,20.76
2023-05-11T18:48:03.833Z,20.44
2023-05-11T18:50:32.179Z,20.12
2023-05-11T18:53:02.186Z,19.82
2023-05-11T18:55:35.480Z,19.54
2023-05-11T18:58:13.177Z,19.27
2023-05-11T19:00:41.516Z,19.06
2023-05-11T19:03:10.055Z,18.86
2023-05-11T19:05:57.702Z,18.66
2023-05-11T19:08:27.619Z,18.46
2023-05-11T19:10:55.847Z,18.33
2023-05-11T19:13:26.041Z,18.18
2023-05-11T19:15:58.991Z,17.98
2023-05-11T19:18:28.606Z,17.88
2023-05-11T19:20:57.615Z,17.71
2023-05-11T19:23:25.852Z,17.63
2023-05-11T19:25:55.981Z,17.52
2023-05-11T19:28:25.624Z,17.39
2023-05-11T19:31:02.060Z,17.28
2023-05-11T19:33:30.532Z,17.20
2023-05-11T19:35:59.038Z,17.07
2023-05-11T19:38:27.611Z,17.01
2023-05-11T19:40:56.427Z,16.89
2023-05-11T19:43:29.003Z,16.79
2023-05-11T19:45:57.272Z,16.69
2023-05-11T19:48:25.566Z,16.59
2023-05-11T19:50:54.444Z,16.46
2023-05-11T19:53:22.910Z,16.35
2023-05-11T19:55:51.595Z,16.27
2023-05-11T19:58:19.877Z,16.16
2023-05-11T20:00:49.967Z,16.08
2023-05-11T20:03:18.333Z,16.02
2023-05-11T20:05:49.327Z,15.90
2023-05-11T20:08:19.370Z,15.80
2023-05-11T20:10:48.223Z,15.76
2023-05-11T20:13:16.467Z,15.68
2023-05-11T20:15:45.117Z,15.64
2023-05-11T20:18:14.660Z,15.59
2023-05-11T20:20:42.718Z,15.54
2023-05-11T20:23:10.912Z,15.46
2023-05-11T20:25:43.900Z,15.37
2023-05-11T20:28:12.398Z,15.29
2023-05-11T20:30:40.718Z,15.23
2023-05-11T20:35:41.514Z,15.09
2023-05-11T20:38:09.757Z,15.02
2023-05-11T20:40:37.915Z,14.95
2023-05-11T20:43:06.180Z,14.88
2023-05-11T20:45:34.526Z,14.82
2023-05-11T20:48:06.293Z,14.75
2023-05-11T20:50:34.995Z,14.69
2023-05-11T20:53:04.635Z,14.61
2023-05-11T20:55:33.091Z,14.52
2023-05-11T20:58:01.472Z,14.50
2023-05-11T21:00:29.791Z,14.44
2023-05-11T21:02:58.179Z,14.38
2023-05-11T21:05:26.483Z,14.31
2023-05-11T21:07:57.298Z,14.26
2023-05-11T21:10:40.679Z,14.20
2023-05-11T21:13:08.800Z,14.12
2023-05-11T21:15:36.928Z,14.08
2023-05-11T21:18:06.597Z,14.01
2023-05-11T21:20:43.918Z,14.00
2023-05-11T21:23:12.044Z,13.95
2023-05-11T21:25:41.694Z,13.89
2023-05-11T21:28:09.894Z,13.82
2023-05-11T21:30:38.125Z,13.77
2023-05-11T21:33:06.299Z,13.70
2023-05-11T21:35:34.656Z,13.67
2023-05-11T21:38:03.518Z,13.63
2023-05-11T21:40:32.843Z,13.57
2023-05-11T21:43:02.816Z,13.57
2023-05-11T21:45:31.544Z,13.53
2023-05-11T21:48:03.111Z,13.50
2023-05-11T21:50:31.410Z,13.50
2023-05-11T21:52:59.520Z,13.49
2023-05-11T21:55:34.293Z,13.47
2023-05-11T21:58:04.594Z,13.44
2023-05-11T22:00:34.692Z,13.37
2023-05-11T22:03:03.605Z,13.37
2023-05-11T22:05:32.580Z,13.33
2023-05-11T22:08:13.160Z,13.26
2023-05-11T22:10:43.139Z,13.27
2023-05-11T22:13:13.097Z,13.23
2023-05-11T22:15:41.230Z,13.18
2023-05-11T22:18:09.574Z,13.13
2023-05-11T22:20:37.817Z,13.08
2023-05-11T22:23:05.952Z,13.03
2023-05-11T22:25:34.104Z,12.95
2023-05-11T22:28:02.295Z,12.95
2023-05-11T22:30:32.314Z,12.87
2023-05-11T22:33:01.011Z,12.81
2023-05-11T22:35:29.983Z,12.80
2023-05-11T22:37:58.203Z,12.76
2023-05-11T22:40:26.821Z,12.70
2023-05-11T22:42:54.964Z,12.69
2023-05-11T22:45:23.530Z,12.64
2023-05-11T22:47:53.221Z,12.63
2023-05-11T22:50:21.984Z,12.60
2023-05-11T22:52:50.344Z,12.58
2023-05-11T22:55:18.872Z,12.55
2023-05-11T22:57:47.053Z,12.52
2023-05-11T23:00:15.688Z,12.49
2023-05-11T23:02:44.342Z,12.44
2023-05-11T23:05:13.972Z,12.42
2023-05-11T23:07:42.931Z,12.37
2023-05-11T23:10:11.813Z,12.35
2023-05-11T23:12:40.292Z,12.34
2023-05-11T23:15:09.689Z,12.30
2023-05-11T23:17:38.133Z,12.25
2023-05-11T23:20:07.709Z,12.20
2023-05-11T23:22:37.302Z,12.16
2023-05-11T23:25:06.058Z,12.11
2023-05-11T23:27:35.028Z,12.04
2023-05-11T23:30:03.278Z,11.96
2023-05-11T23:32:32.282Z,11.90
2023-05-11T23:35:00.568Z,11.87
2023-05-11T23:37:28.923Z,11.78
2023-05-11T23:39:58.563Z,11.77
2023-05-11T23:42:26.840Z,11.74
2023-05-11T23:44:56.151Z,11.72
2023-05-11T23:47:24.793Z,11.70
2023-05-11T23:49:53.737Z,11.68
2023-05-11T23:52:21.936Z,11.66
2023-05-11T23:54:50.589Z,11.60
2023-05-11T23:57:20.309Z,11.55
2023-05-11T23:59:49.040Z,11.49
